createdAt,value
2023-02-28T00:02:32.960Z,9.65
2023-02-28T00:05:11.905Z,9.15
2023-02-28T00:10:34.903Z,8.77
2023-02-28T00:13:22.843Z,8.45
2023-02-28T00:16:09.370Z,8.20
2023-02-28T00:18:42.509Z,8.75
2023-02-28T00:21:14.581Z,8.65
2023-02-28T00:23:53.666Z,8.77
2023-02-28T00:26:28.976Z,11.20
2023-02-28T00:29:04.883Z,9.65
2023-02-28T00:31:55.495Z,10.23
2023-02-28T00:37:22.565Z,10.35
2023-02-28T00:40:06.263Z,10.35
2023-02-28T00:42:49.609Z,11.52
2023-02-28T00:46:21.861Z,8.77
2023-02-28T00:49:48.489Z,10.15
2023-02-28T00:52:43.040Z,9.50
2023-02-28T00:55:55.384Z,9.40
2023-02-28T01:53:12.331Z,8.63
2023-02-28T02:55:24.938Z,7.50
2023-02-28T02:58:53.042Z,8.75
2023-02-28T03:02:05.558Z,7.80
2023-02-28T03:05:50.630Z,8.00
2023-02-28T03:47:42.964Z,7.78
2023-02-28T03:51:37.704Z,8.35
2023-02-28T04:19:10.060Z,8.50
2023-02-28T04:22:29.917Z,9.27
2023-02-28T04:26:22.152Z,9.27
2023-02-28T04:32:52.661Z,9.85
2023-02-28T04:50:55.189Z,10.48
2023-02-28T04:53:39.765Z,12.00
2023-02-28T04:56:57.782Z,10.88
2023-02-28T05:03:20.204Z,12.77
2023-02-28T05:06:25.838Z,11.10
2023-02-28T05:09:01.931Z,12.95
2023-02-28T05:12:12.991Z,13.85
2023-02-28T05:15:24.670Z,14.85
2023-02-28T05:18:15.453Z,13.90
2023-02-28T05:21:53.506Z,13.40
2023-02-28T05:24:51.198Z,13.05
2023-02-28T05:28:22.130Z,13.38
2023-02-28T05:52:08.507Z,11.90
2023-02-28T05:55:22.707Z,13.32
2023-02-28T06:05:07.425Z,13.52
2023-02-28T06:08:39.575Z,14.60
2023-02-28T06:22:22.766Z,11.98
2023-02-28T06:38:51.662Z,19.25
2023-02-28T06:42:02.636Z,16.80
2023-02-28T06:44:46.772Z,15.75
2023-02-28T06:47:33.675Z,18.23
2023-02-28T06:50:07.985Z,21.08
2023-02-28T06:55:28.824Z,20.05
2023-02-28T06:58:07.077Z,19.13
2023-02-28T07:01:17.356Z,23.90
2023-02-28T07:03:57.983Z,27.63
2023-02-28T07:09:52.845Z,49.88
2023-02-28T07:12:47.688Z,37.67
2023-02-28T07:15:37.691Z,33.30
2023-02-28T07:18:25.352Z,31.10
2023-02-28T07:21:38.629Z,32.05
2023-02-28T07:24:15.036Z,30.30
2023-02-28T07:27:04.478Z,25.27
2023-02-28T07:29:45.346Z,31.38
2023-02-28T07:32:21.202Z,36.92
2023-02-28T07:34:53.522Z,32.65
2023-02-28T07:37:25.213Z,31.80
2023-02-28T07:39:53.817Z,33.67
2023-02-28T07:42:22.497Z,35.08
2023-02-28T07:44:52.703Z,41.38
2023-02-28T07:47:22.694Z,35.33
2023-02-28T07:49:52.420Z,33.50
2023-02-28T07:52:22.271Z,24.20
2023-02-28T07:54:50.586Z,17.13
2023-02-28T07:57:19.315Z,16.08
2023-02-28T07:59:47.587Z,17.05
2023-02-28T08:02:16.948Z,16.35
2023-02-28T08:04:45.984Z,18.60
2023-02-28T08:07:15.545Z,17.77
2023-02-28T08:09:46.392Z,14.27
2023-02-28T08:12:15.947Z,12.00
2023-02-28T08:14:44.871Z,11.52
2023-02-28T08:17:17.367Z,12.93
2023-02-28T08:19:48.204Z,12.60
2023-02-28T08:22:16.535Z,11.45
2023-02-28T08:24:46.805Z,11.18
2023-02-28T08:27:15.320Z,9.95
2023-02-28T08:29:43.594Z,10.77
2023-02-28T08:32:27.190Z,11.48
2023-02-28T08:34:57.647Z,11.65
2023-02-28T08:37:26.159Z,14.30
2023-02-28T08:39:56.590Z,13.55
2023-02-28T08:42:25.168Z,19.13
2023-02-28T08:44:53.488Z,36.63
2023-02-28T08:47:22.257Z,15.10
2023-02-28T08:49:51.089Z,9.20
2023-02-28T08:52:19.563Z,9.30
2023-02-28T08:54:49.496Z,9.32
2023-02-28T08:57:19.525Z,8.98
2023-02-28T08:59:50.586Z,9.50
2023-02-28T09:02:19.014Z,8.63
2023-02-28T09:04:50.010Z,7.50
2023-02-28T09:07:18.370Z,8.38
2023-02-28T09:09:55.708Z,8.63
2023-02-28T09:12:26.984Z,11.32
2023-02-28T09:14:55.385Z,10.32
2023-02-28T09:17:24.090Z,7.28
2023-02-28T09:19:59.262Z,7.63
2023-02-28T09:22:29.875Z,7.43
2023-02-28T09:25:06.735Z,8.02
2023-02-28T09:27:36.639Z,7.05
2023-02-28T09:30:06.462Z,7.70
2023-02-28T09:32:34.957Z,8.23
2023-02-28T09:35:03.367Z,7.60
2023-02-28T09:37:32.254Z,6.80
2023-02-28T09:40:02.218Z,7.82
2023-02-28T09:42:36.240Z,7.50
2023-02-28T09:45:14.379Z,7.05
2023-02-28T09:47:46.874Z,7.68
2023-02-28T09:50:23.128Z,7.57
2023-02-28T09:52:52.607Z,7.45
2023-02-28T09:55:27.571Z,6.90
2023-02-28T09:58:00.895Z,7.20
2023-02-28T10:00:36.419Z,7.07
2023-02-28T10:03:25.657Z,7.43
2023-02-28T10:05:58.726Z,8.07
2023-02-28T10:08:31.446Z,7.00
2023-02-28T10:11:02.785Z,8.23
2023-02-28T10:13:38.344Z,7.22
2023-02-28T10:16:12.890Z,7.63
2023-02-28T10:18:48.317Z,9.43
2023-02-28T10:21:23.287Z,15.13
2023-02-28T10:23:58.505Z,8.90
2023-02-28T10:26:31.593Z,8.43
2023-02-28T10:29:02.025Z,8.40
2023-02-28T10:31:30.614Z,7.93
2023-02-28T10:33:59.017Z,8.13
2023-02-28T10:36:27.991Z,8.80
2023-02-28T10:39:10.514Z,12.05
2023-02-28T10:41:45.058Z,17.50
2023-02-28T10:44:24.580Z,12.07
2023-02-28T10:46:53.592Z,35.92
2023-02-28T10:49:24.772Z,39.80
2023-02-28T10:51:57.903Z,39.90
2023-02-28T10:54:30.875Z,10.98
2023-02-28T10:57:18.789Z,10.80
2023-02-28T10:59:52.942Z,9.10
2023-02-28T11:05:30.144Z,9.18
2023-02-28T11:08:05.968Z,8.68
2023-02-28T11:10:35.956Z,9.55
2023-02-28T11:13:08.229Z,9.38
2023-02-28T11:15:39.146Z,10.10
2023-02-28T11:18:24.811Z,10.25
2023-02-28T11:20:56.603Z,9.43
2023-02-28T11:23:28.898Z,9.82
2023-02-28T11:26:01.110Z,9.32
2023-02-28T11:28:33.613Z,9.05
2023-02-28T11:31:17.908Z,10.15
2023-02-28T11:33:51.334Z,8.80
2023-02-28T11:36:25.804Z,9.48
2023-02-28T11:38:56.400Z,8.88
2023-02-28T11:41:44.060Z,10.55
2023-02-28T11:44:25.830Z,9.50
2023-02-28T11:47:01.201Z,9.73
2023-02-28T11:49:37.038Z,9.43
2023-02-28T11:52:12.905Z,9.35
2023-02-28T11:55:02.673Z,9.00
2023-02-28T11:57:45.785Z,9.40
2023-02-28T12:00:32.726Z,9.18
2023-02-28T12:03:13.814Z,9.15
2023-02-28T12:05:47.965Z,8.75
2023-02-28T12:08:28.458Z,10.00
2023-02-28T12:11:07.997Z,22.83
2023-02-28T12:13:48.460Z,10.82
2023-02-28T12:16:39.756Z,10.27
2023-02-28T12:19:22.564Z,10.60
2023-02-28T12:22:14.055Z,9.77
2023-02-28T12:24:57.108Z,8.73
2023-02-28T12:27:29.347Z,10.02
2023-02-28T12:30:01.181Z,8.98
2023-02-28T12:32:34.436Z,9.88
2023-02-28T12:35:08.754Z,9.00
2023-02-28T12:37:41.187Z,10.25
2023-02-28T12:40:14.890Z,9.70
2023-02-28T12:42:48.345Z,10.40
2023-02-28T12:45:21.828Z,9.48
2023-02-28T12:47:57.605Z,67.57
2023-02-28T12:50:29.321Z,41.75
2023-02-28T12:53:04.668Z,10.18
2023-02-28T12:55:40.450Z,9.00
2023-02-28T12:58:15.793Z,10.27
2023-02-28T13:01:00.741Z,10.38
2023-02-28T13:03:59.857Z,9.20
2023-02-28T13:07:01.195Z,10.07
2023-02-28T13:09:30.729Z,9.00
2023-02-28T13:12:00.376Z,9.20
2023-02-28T13:14:32.179Z,10.13
2023-02-28T13:17:04.735Z,10.35
2023-02-28T13:19:35.615Z,9.85
2023-02-28T13:22:06.843Z,9.30
2023-02-28T13:24:48.432Z,10.93
2023-02-28T13:27:41.116Z,10.55
2023-02-28T13:30:47.842Z,10.57
2023-02-28T13:33:35.420Z,10.98
2023-02-28T13:40:05.476Z,10.10
2023-02-28T14:47:42.343Z,11.00
2023-02-28T14:50:34.901Z,9.93
2023-02-28T14:53:06.460Z,10.95
2023-02-28T14:58:54.586Z,10.80
2023-02-28T15:18:54.350Z,10.93
2023-02-28T15:21:28.285Z,10.70
2023-02-28T15:24:18.107Z,11.63
2023-02-28T15:32:41.887Z,12.43
2023-02-28T15:35:41.997Z,11.65
2023-02-28T15:38:34.397Z,12.25
2023-02-28T15:41:09.208Z,10.93
2023-02-28T15:43:51.408Z,11.35
2023-02-28T15:46:24.675Z,11.27
2023-02-28T15:48:58.229Z,11.38
2023-02-28T15:51:31.817Z,11.38
2023-02-28T15:54:03.143Z,10.82
2023-02-28T15:56:40.425Z,11.60
2023-02-28T15:59:16.246Z,11.90
2023-02-28T16:01:44.808Z,11.93
2023-02-28T16:04:18.163Z,12.18
2023-02-28T16:06:47.319Z,12.13
2023-02-28T16:09:17.789Z,11.85
2023-02-28T16:11:49.658Z,10.90
2023-02-28T16:14:24.147Z,11.70
2023-02-28T16:16:54.204Z,11.95
2023-02-28T16:19:23.114Z,12.75
2023-02-28T16:21:52.345Z,11.38
2023-02-28T16:24:20.921Z,12.63
2023-02-28T16:26:53.443Z,12.02
2023-02-28T16:29:29.263Z,12.52
2023-02-28T16:31:58.076Z,11.13
2023-02-28T16:34:28.465Z,11.75
2023-02-28T16:36:57.126Z,14.07
2023-02-28T16:39:34.233Z,13.40
2023-02-28T16:42:10.766Z,12.90
2023-02-28T16:44:39.595Z,12.65
2023-02-28T16:47:08.715Z,13.27
2023-02-28T16:49:51.693Z,13.57
2023-02-28T16:52:20.665Z,13.30
2023-02-28T16:54:49.995Z,13.93
2023-02-28T16:58:11.352Z,15.38
2023-02-28T17:00:41.551Z,15.02
2023-02-28T17:03:32.582Z,14.85
2023-02-28T17:06:03.756Z,13.93
2023-02-28T17:11:22.687Z,14.15
2023-02-28T17:14:05.694Z,13.77
2023-02-28T17:16:51.954Z,15.32
2023-02-28T17:28:52.565Z,14.95
2023-02-28T17:42:50.192Z,15.20
2023-02-28T17:45:40.046Z,16.88
2023-02-28T17:48:19.430Z,15.55
2023-02-28T17:50:57.629Z,16.00
2023-02-28T17:53:46.464Z,14.93
2023-02-28T17:56:25.466Z,13.82
2023-02-28T17:59:04.523Z,14.00
2023-02-28T18:01:36.052Z,13.27
2023-02-28T18:08:23.238Z,13.40
2023-02-28T18:23:08.129Z,21.10
2023-02-28T18:25:45.027Z,27.88
2023-02-28T18:28:16.653Z,19.80
2023-02-28T18:30:51.115Z,19.73
2023-02-28T18:33:22.458Z,18.55
2023-02-28T18:36:17.486Z,15.65
2023-02-28T18:38:57.785Z,16.73
2023-02-28T18:41:31.292Z,14.95
2023-02-28T18:44:21.138Z,14.23
2023-02-28T18:52:22.079Z,15.60
2023-02-28T18:55:21.035Z,14.27
2023-02-28T18:58:04.810Z,16.05
2023-02-28T19:01:01.279Z,15.85
2023-02-28T19:03:45.001Z,18.42
2023-02-28T20:07:43.131Z,18.42
